sensor_id;sensor_type;location;lat;lon;timestamp;P1;durP1;ratioP1;P2;durP2;ratioP2
13605;SDS011;6874;52.084;5.090;2022-10-23T00:01:25;71.43;;;69.03;;
13605;SDS011;6874;52.084;5.090;2022-10-23T00:04:10;81.73;;;79.00;;
13605;SDS011;6874;52.084;5.090;2022-10-23T00:06:38;77.70;;;75.13;;
13605;SDS011;6874;52.084;5.090;2022-10-23T00:09:05;74.97;;;72.47;;
13605;SDS011;6874;52.084;5.090;2022-10-23T00:11:32;72.93;;;70.50;;
13605;SDS011;6874;52.084;5.090;2022-10-23T00:13:59;67.87;;;65.63;;
13605;SDS011;6874;52.084;5.090;2022-10-23T00:16:26;67.03;;;64.80;;
13605;SDS011;6874;52.084;5.090;2022-10-23T00:18:52;65.60;;;63.43;;
13605;SDS011;6874;52.084;5.090;2022-10-23T00:21:18;65.60;;;63.43;;
13605;SDS011;6874;52.084;5.090;2022-10-23T00:23:44;60.67;;;58.67;;
13605;SDS011;6874;52.084;5.090;2022-10-23T00:26:10;61.53;;;59.53;;
13605;SDS011;6874;52.084;5.090;2022-10-23T00:28:40;59.80;;;57.80;;
13605;SDS011;6874;52.084;5.090;2022-10-23T00:31:06;59.67;;;57.70;;
13605;SDS011;6874;52.084;5.090;2022-10-23T00:33:32;57.10;;;55.20;;
13605;SDS011;6874;52.084;5.090;2022-10-23T00:35:58;60.43;;;58.43;;
13605;SDS011;6874;52.084;5.090;2022-10-23T00:38:24;52.23;;;50.53;;
13605;SDS011;6874;52.084;5.090;2022-10-23T00:40:49;57.30;;;55.40;;
13605;SDS011;6874;52.084;5.090;2022-10-23T00:43:18;54.87;;;53.07;;
13605;SDS011;6874;52.084;5.090;2022-10-23T00:45:46;56.47;;;54.63;;
13605;SDS011;6874;52.084;5.090;2022-10-23T00:48:11;53.90;;;52.10;;
13605;SDS011;6874;52.084;5.090;2022-10-23T00:50:37;55.47;;;53.67;;
13605;SDS011;6874;52.084;5.090;2022-10-23T00:53:03;52.43;;;50.73;;
13605;SDS011;6874;52.084;5.090;2022-10-23T00:55:29;51.13;;;49.43;;
13605;SDS011;6874;52.084;5.090;2022-10-23T00:57:57;47.47;;;45.90;;
13605;SDS011;6874;52.084;5.090;2022-10-23T01:00:27;49.63;;;48.03;;
13605;SDS011;6874;52.084;5.090;2022-10-23T01:02:56;48.93;;;47.33;;
13605;SDS011;6874;52.084;5.090;2022-10-23T01:05:24;53.53;;;51.73;;
13605;SDS011;6874;52.084;5.090;2022-10-23T01:08:09;53.17;;;51.47;;
13605;SDS011;6874;52.084;5.090;2022-10-23T01:11:02;57.27;;;55.40;;
13605;SDS011;6874;52.084;5.090;2022-10-23T01:24:57;77.53;;;74.93;;
13605;SDS011;6874;52.084;5.090;2022-10-23T01:27:31;75.20;;;72.70;;
13605;SDS011;6874;52.084;5.090;2022-10-23T01:30:11;80.93;;;78.23;;
13605;SDS011;6874;52.084;5.090;2022-10-23T01:35:19;76.40;;;73.90;;
13605;SDS011;6874;52.084;5.090;2022-10-23T01:38:07;78.70;;;76.10;;
13605;SDS011;6874;52.084;5.090;2022-10-23T01:40:46;82.67;;;79.97;;
13605;SDS011;6874;52.084;5.090;2022-10-23T01:43:39;85.80;;;82.97;;
13605;SDS011;6874;52.084;5.090;2022-10-23T01:46:10;82.77;;;80.07;;
13605;SDS011;6874;52.084;5.090;2022-10-23T01:48:39;80.77;;;78.07;;
13605;SDS011;6874;52.084;5.090;2022-10-23T01:51:09;78.50;;;75.90;;
13605;SDS011;6874;52.084;5.090;2022-10-23T01:53:38;72.50;;;70.10;;
13605;SDS011;6874;52.084;5.090;2022-10-23T01:56:08;70.77;;;68.43;;
13605;SDS011;6874;52.084;5.090;2022-10-23T01:58:36;71.80;;;69.43;;
13605;SDS011;6874;52.084;5.090;2022-10-23T02:01:03;62.67;;;60.60;;
13605;SDS011;6874;52.084;5.090;2022-10-23T02:03:30;69.30;;;67.03;;
13605;SDS011;6874;52.084;5.090;2022-10-23T02:05:57;63.53;;;61.43;;
13605;SDS011;6874;52.084;5.090;2022-10-23T02:08:23;61.17;;;59.17;;
13605;SDS011;6874;52.084;5.090;2022-10-23T02:10:54;60.03;;;58.07;;
13605;SDS011;6874;52.084;5.090;2022-10-23T02:16:07;62.60;;;60.53;;
13605;SDS011;6874;52.084;5.090;2022-10-23T02:27:25;72.47;;;70.10;;
13605;SDS011;6874;52.084;5.090;2022-10-23T02:30:01;74.87;;;72.40;;
13605;SDS011;6874;52.084;5.090;2022-10-23T02:32:32;70.47;;;68.17;;
13605;SDS011;6874;52.084;5.090;2022-10-23T02:34:58;66.20;;;64.00;;
13605;SDS011;6874;52.084;5.090;2022-10-23T02:37:25;66.60;;;64.40;;
13605;SDS011;6874;52.084;5.090;2022-10-23T02:39:51;65.33;;;63.20;;
13605;SDS011;6874;52.084;5.090;2022-10-23T02:42:18;59.33;;;57.37;;
13605;SDS011;6874;52.084;5.090;2022-10-23T02:44:59;62.00;;;59.97;;
13605;SDS011;6874;52.084;5.090;2022-10-23T02:50:28;64.57;;;62.43;;
13605;SDS011;6874;52.084;5.090;2022-10-23T02:55:59;67.20;;;65.00;;
13605;SDS011;6874;52.084;5.090;2022-10-23T02:58:36;70.57;;;68.23;;
13605;SDS011;6874;52.084;5.090;2022-10-23T03:01:07;66.60;;;64.40;;
13605;SDS011;6874;52.084;5.090;2022-10-23T03:03:35;63.57;;;61.47;;
13605;SDS011;6874;52.084;5.090;2022-10-23T03:06:05;62.70;;;60.60;;
13605;SDS011;6874;52.084;5.090;2022-10-23T03:08:39;64.87;;;62.77;;
13605;SDS011;6874;52.084;5.090;2022-10-23T03:11:09;67.47;;;65.23;;
13605;SDS011;6874;52.084;5.090;2022-10-23T03:13:35;61.53;;;59.50;;
13605;SDS011;6874;52.084;5.090;2022-10-23T03:16:00;63.33;;;61.23;;
13605;SDS011;6874;52.084;5.090;2022-10-23T03:18:26;62.93;;;60.87;;
13605;SDS011;6874;52.084;5.090;2022-10-23T03:20:52;60.77;;;58.77;;
13605;SDS011;6874;52.084;5.090;2022-10-23T03:23:17;58.27;;;56.33;;
13605;SDS011;6874;52.084;5.090;2022-10-23T03:25:43;59.70;;;57.73;;
13605;SDS011;6874;52.084;5.090;2022-10-23T03:28:08;57.70;;;55.80;;
13605;SDS011;6874;52.084;5.090;2022-10-23T03:30:34;54.40;;;52.60;;
13605;SDS011;6874;52.084;5.090;2022-10-23T03:32:59;50.10;;;48.47;;
13605;SDS011;6874;52.084;5.090;2022-10-23T03:35:25;50.07;;;48.43;;
13605;SDS011;6874;52.084;5.090;2022-10-23T03:37:50;51.63;;;49.97;;
13605;SDS011;6874;52.084;5.090;2022-10-23T03:40:16;50.90;;;49.23;;
13605;SDS011;6874;52.084;5.090;2022-10-23T03:42:42;45.57;;;44.07;;
13605;SDS011;6874;52.084;5.090;2022-10-23T03:45:07;45.40;;;43.90;;
13605;SDS011;6874;52.084;5.090;2022-10-23T03:47:33;45.60;;;44.10;;
13605;SDS011;6874;52.084;5.090;2022-10-23T03:49:59;45.47;;;43.97;;
13605;SDS011;6874;52.084;5.090;2022-10-23T03:52:25;46.00;;;44.50;;
13605;SDS011;6874;52.084;5.090;2022-10-23T03:54:51;45.93;;;44.43;;
13605;SDS011;6874;52.084;5.090;2022-10-23T03:57:16;45.53;;;44.03;;
13605;SDS011;6874;52.084;5.090;2022-10-23T03:59:42;48.07;;;46.50;;
13605;SDS011;6874;52.084;5.090;2022-10-23T04:02:07;47.07;;;45.50;;
13605;SDS011;6874;52.084;5.090;2022-10-23T04:04:33;45.03;;;43.57;;
13605;SDS011;6874;52.084;5.090;2022-10-23T04:06:59;42.40;;;41.00;;
13605;SDS011;6874;52.084;5.090;2022-10-23T04:09:24;45.50;;;44.00;;
13605;SDS011;6874;52.084;5.090;2022-10-23T04:11:50;44.20;;;42.80;;
13605;SDS011;6874;52.084;5.090;2022-10-23T04:14:15;43.83;;;42.43;;
13605;SDS011;6874;52.084;5.090;2022-10-23T04:16:41;45.83;;;44.33;;
13605;SDS011;6874;52.084;5.090;2022-10-23T04:19:06;46.80;;;45.27;;
13605;SDS011;6874;52.084;5.090;2022-10-23T04:21:32;47.93;;;46.37;;
13605;SDS011;6874;52.084;5.090;2022-10-23T04:23:58;45.67;;;44.17;;
13605;SDS011;6874;52.084;5.090;2022-10-23T04:26:23;48.27;;;46.67;;
13605;SDS011;6874;52.084;5.090;2022-10-23T04:28:49;47.10;;;45.57;;
13605;SDS011;6874;52.084;5.090;2022-10-23T04:31:14;47.00;;;45.47;;
13605;SDS011;6874;52.084;5.090;2022-10-23T04:33:40;46.27;;;44.77;;
13605;SDS011;6874;52.084;5.090;2022-10-23T04:36:05;46.00;;;44.50;;
13605;SDS011;6874;52.084;5.090;2022-10-23T04:38:32;50.13;;;48.50;;
13605;SDS011;6874;52.084;5.090;2022-10-23T04:40:57;48.97;;;47.37;;
13605;SDS011;6874;52.084;5.090;2022-10-23T04:43:23;47.73;;;46.17;;
13605;SDS011;6874;52.084;5.090;2022-10-23T04:45:48;53.63;;;51.87;;
13605;SDS011;6874;52.084;5.090;2022-10-23T04:48:14;52.13;;;50.43;;
13605;SDS011;6874;52.084;5.090;2022-10-23T04:50:39;57.50;;;55.60;;
13605;SDS011;6874;52.084;5.090;2022-10-23T04:53:05;54.37;;;52.57;;
13605;SDS011;6874;52.084;5.090;2022-10-23T04:55:33;55.07;;;53.27;;
13605;SDS011;6874;52.084;5.090;2022-10-23T04:57:58;59.83;;;57.87;;
13605;SDS011;6874;52.084;5.090;2022-10-23T05:00:24;57.37;;;55.47;;
13605;SDS011;6874;52.084;5.090;2022-10-23T05:02:49;57.47;;;55.57;;
13605;SDS011;6874;52.084;5.090;2022-10-23T05:05:15;56.90;;;55.03;;
13605;SDS011;6874;52.084;5.090;2022-10-23T05:07:41;66.67;;;64.47;;
13605;SDS011;6874;52.084;5.090;2022-10-23T05:10:07;60.90;;;58.90;;
13605;SDS011;6874;52.084;5.090;2022-10-23T05:12:33;60.80;;;58.80;;
13605;SDS011;6874;52.084;5.090;2022-10-23T05:14:59;61.97;;;59.97;;
13605;SDS011;6874;52.084;5.090;2022-10-23T05:17:26;58.03;;;56.13;;
13605;SDS011;6874;52.084;5.090;2022-10-23T05:20:00;63.07;;;60.97;;
13605;SDS011;6874;52.084;5.090;2022-10-23T05:22:29;66.40;;;64.20;;
13605;SDS011;6874;52.084;5.090;2022-10-23T05:24:57;63.73;;;61.63;;
13605;SDS011;6874;52.084;5.090;2022-10-23T05:27:25;65.33;;;63.17;;
13605;SDS011;6874;52.084;5.090;2022-10-23T05:29:51;67.03;;;64.83;;
13605;SDS011;6874;52.084;5.090;2022-10-23T05:32:17;72.93;;;70.53;;
13605;SDS011;6874;52.084;5.090;2022-10-23T05:34:42;70.17;;;67.87;;
13605;SDS011;6874;52.084;5.090;2022-10-23T05:37:08;74.27;;;71.80;;
13605;SDS011;6874;52.084;5.090;2022-10-23T05:39:37;74.67;;;72.20;;
13605;SDS011;6874;52.084;5.090;2022-10-23T05:42:02;71.53;;;69.20;;
13605;SDS011;6874;52.084;5.090;2022-10-23T05:44:28;72.47;;;70.10;;
13605;SDS011;6874;52.084;5.090;2022-10-23T05:47:00;72.57;;;70.20;;
13605;SDS011;6874;52.084;5.090;2022-10-23T05:49:25;73.70;;;71.27;;
13605;SDS011;6874;52.084;5.090;2022-10-23T05:51:51;73.97;;;71.53;;
13605;SDS011;6874;52.084;5.090;2022-10-23T05:54:22;82.13;;;79.43;;
13605;SDS011;6874;52.084;5.090;2022-10-23T05:56:56;75.93;;;73.40;;
13605;SDS011;6874;52.084;5.090;2022-10-23T05:59:22;81.93;;;79.23;;
13605;SDS011;6874;52.084;5.090;2022-10-23T06:01:47;78.13;;;75.53;;
13605;SDS011;6874;52.084;5.090;2022-10-23T06:04:13;77.80;;;75.20;;
13605;SDS011;6874;52.084;5.090;2022-10-23T06:06:39;84.17;;;81.37;;
13605;SDS011;6874;52.084;5.090;2022-10-23T06:09:04;84.80;;;82.00;;
13605;SDS011;6874;52.084;5.090;2022-10-23T06:11:30;85.73;;;82.83;;
13605;SDS011;6874;52.084;5.090;2022-10-23T06:13:56;83.17;;;80.40;;
13605;SDS011;6874;52.084;5.090;2022-10-23T06:16:22;85.43;;;82.60;;
13605;SDS011;6874;52.084;5.090;2022-10-23T06:18:51;85.90;;;83.10;;
13605;SDS011;6874;52.084;5.090;2022-10-23T06:21:17;85.87;;;83.03;;
13605;SDS011;6874;52.084;5.090;2022-10-23T06:23:42;89.23;;;86.33;;
13605;SDS011;6874;52.084;5.090;2022-10-23T06:26:10;83.37;;;80.60;;
13605;SDS011;6874;52.084;5.090;2022-10-23T06:28:37;86.00;;;83.10;;
13605;SDS011;6874;52.084;5.090;2022-10-23T06:31:03;86.73;;;83.83;;
13605;SDS011;6874;52.084;5.090;2022-10-23T06:33:30;90.30;;;87.30;;
13605;SDS011;6874;52.084;5.090;2022-10-23T06:35:55;89.83;;;86.87;;
13605;SDS011;6874;52.084;5.090;2022-10-23T06:38:21;96.40;;;93.20;;
13605;SDS011;6874;52.084;5.090;2022-10-23T06:40:50;91.33;;;88.33;;
13605;SDS011;6874;52.084;5.090;2022-10-23T06:43:17;89.80;;;86.80;;
13605;SDS011;6874;52.084;5.090;2022-10-23T06:45:42;87.13;;;84.23;;
13605;SDS011;6874;52.084;5.090;2022-10-23T06:48:08;92.97;;;89.87;;
13605;SDS011;6874;52.084;5.090;2022-10-23T06:50:35;97.60;;;94.37;;
13605;SDS011;6874;52.084;5.090;2022-10-23T06:53:01;98.10;;;94.87;;
13605;SDS011;6874;52.084;5.090;2022-10-23T06:55:28;95.33;;;92.17;;
13605;SDS011;6874;52.084;5.090;2022-10-23T06:57:54;94.17;;;91.03;;
13605;SDS011;6874;52.084;5.090;2022-10-23T07:00:19;91.97;;;88.90;;
13605;SDS011;6874;52.084;5.090;2022-10-23T07:02:45;93.43;;;90.33;;
13605;SDS011;6874;52.084;5.090;2022-10-23T07:05:11;98.43;;;95.17;;
13605;SDS011;6874;52.084;5.090;2022-10-23T07:07:36;100.40;;;97.03;;
13605;SDS011;6874;52.084;5.090;2022-10-23T07:10:02;105.47;;;101.93;;
13605;SDS011;6874;52.084;5.090;2022-10-23T07:12:28;101.53;;;98.20;;
13605;SDS011;6874;52.084;5.090;2022-10-23T07:14:54;102.53;;;99.13;;
13605;SDS011;6874;52.084;5.090;2022-10-23T07:17:20;105.27;;;101.77;;
13605;SDS011;6874;52.084;5.090;2022-10-23T07:19:46;107.53;;;103.93;;
13605;SDS011;6874;52.084;5.090;2022-10-23T07:22:12;105.20;;;101.67;;
13605;SDS011;6874;52.084;5.090;2022-10-23T07:24:38;109.43;;;105.77;;
13605;SDS011;6874;52.084;5.090;2022-10-23T07:27:04;114.80;;;110.97;;
13605;SDS011;6874;52.084;5.090;2022-10-23T07:29:30;114.67;;;110.87;;
13605;SDS011;6874;52.084;5.090;2022-10-23T07:31:57;115.90;;;112.00;;
13605;SDS011;6874;52.084;5.090;2022-10-23T07:34:24;118.43;;;114.43;;
13605;SDS011;6874;52.084;5.090;2022-10-23T07:36:50;125.03;;;120.83;;
13605;SDS011;6874;52.084;5.090;2022-10-23T07:39:16;117.03;;;113.07;;
13605;SDS011;6874;52.084;5.090;2022-10-23T07:41:41;114.23;;;110.37;;
13605;SDS011;6874;52.084;5.090;2022-10-23T07:44:07;110.87;;;107.13;;
13605;SDS011;6874;52.084;5.090;2022-10-23T07:46:32;111.50;;;107.77;;
13605;SDS011;6874;52.084;5.090;2022-10-23T07:48:58;102.83;;;99.37;;
13605;SDS011;6874;52.084;5.090;2022-10-23T07:51:23;102.37;;;98.97;;
13605;SDS011;6874;52.084;5.090;2022-10-23T07:53:49;96.27;;;93.00;;
13605;SDS011;6874;52.084;5.090;2022-10-23T07:56:15;94.33;;;91.13;;
13605;SDS011;6874;52.084;5.090;2022-10-23T07:58:44;89.27;;;86.27;;
13605;SDS011;6874;52.084;5.090;2022-10-23T08:01:14;86.70;;;83.80;;
13605;SDS011;6874;52.084;5.090;2022-10-23T08:03:45;72.97;;;70.53;;
13605;SDS011;6874;52.084;5.090;2022-10-23T08:06:10;76.60;;;74.03;;
13605;SDS011;6874;52.084;5.090;2022-10-23T08:08:36;77.80;;;75.17;;
13605;SDS011;6874;52.084;5.090;2022-10-23T08:11:01;73.27;;;70.80;;
13605;SDS011;6874;52.084;5.090;2022-10-23T08:13:27;73.27;;;70.80;;
13605;SDS011;6874;52.084;5.090;2022-10-23T08:15:53;69.07;;;66.77;;
13605;SDS011;6874;52.084;5.090;2022-10-23T08:18:19;61.90;;;59.80;;
13605;SDS011;6874;52.084;5.090;2022-10-23T08:20:45;65.40;;;63.20;;
13605;SDS011;6874;52.084;5.090;2022-10-23T08:23:12;58.03;;;56.07;;
13605;SDS011;6874;52.084;5.090;2022-10-23T08:25:40;57.27;;;55.33;;
13605;SDS011;6874;52.084;5.090;2022-10-23T08:28:07;55.57;;;53.70;;
13605;SDS011;6874;52.084;5.090;2022-10-23T08:30:33;57.87;;;55.93;;
13605;SDS011;6874;52.084;5.090;2022-10-23T08:33:01;57.47;;;55.53;;
13605;SDS011;6874;52.084;5.090;2022-10-23T08:35:34;55.47;;;53.63;;
13605;SDS011;6874;52.084;5.090;2022-10-23T08:38:00;53.50;;;51.70;;
13605;SDS011;6874;52.084;5.090;2022-10-23T08:40:26;56.03;;;54.13;;
13605;SDS011;6874;52.084;5.090;2022-10-23T08:42:53;52.03;;;50.30;;
13605;SDS011;6874;52.084;5.090;2022-10-23T08:45:35;54.97;;;53.13;;
13605;SDS011;6874;52.084;5.090;2022-10-23T08:48:08;53.23;;;51.43;;
13605;SDS011;6874;52.084;5.090;2022-10-23T08:50:55;53.57;;;51.77;;
13605;SDS011;6874;52.084;5.090;2022-10-23T08:56:00;60.40;;;58.37;;
13605;SDS011;6874;52.084;5.090;2022-10-23T08:58:39;62.07;;;60.00;;
13605;SDS011;6874;52.084;5.090;2022-10-23T09:03:45;60.77;;;58.73;;
13605;SDS011;6874;52.084;5.090;2022-10-23T09:06:58;75.80;;;73.27;;
13605;SDS011;6874;52.084;5.090;2022-10-23T09:12:08;67.53;;;65.30;;
13605;SDS011;6874;52.084;5.090;2022-10-23T09:17:22;68.40;;;66.17;;
13605;SDS011;6874;52.084;5.090;2022-10-23T09:19:59;74.67;;;72.20;;
13605;SDS011;6874;52.084;5.090;2022-10-23T09:22:44;69.77;;;67.47;;
13605;SDS011;6874;52.084;5.090;2022-10-23T09:25:15;72.43;;;70.03;;
13605;SDS011;6874;52.084;5.090;2022-10-23T09:27:47;72.70;;;70.30;;
13605;SDS011;6874;52.084;5.090;2022-10-23T09:30:34;70.87;;;68.53;;
13605;SDS011;6874;52.084;5.090;2022-10-23T09:35:56;63.47;;;61.40;;
13605;SDS011;6874;52.084;5.090;2022-10-23T09:41:13;62.70;;;60.63;;
13605;SDS011;6874;52.084;5.090;2022-10-23T09:43:58;62.83;;;60.77;;
13605;SDS011;6874;52.084;5.090;2022-10-23T09:46:35;61.37;;;59.37;;
13605;SDS011;6874;52.084;5.090;2022-10-23T09:49:04;63.50;;;61.40;;
13605;SDS011;6874;52.084;5.090;2022-10-23T09:51:31;70.13;;;67.83;;
13605;SDS011;6874;52.084;5.090;2022-10-23T09:53:57;67.40;;;65.17;;
13605;SDS011;6874;52.084;5.090;2022-10-23T09:56:34;69.77;;;67.47;;
13605;SDS011;6874;52.084;5.090;2022-10-23T10:01:46;65.93;;;63.77;;
13605;SDS011;6874;52.084;5.090;2022-10-23T10:04:13;67.50;;;65.27;;
13605;SDS011;6874;52.084;5.090;2022-10-23T10:06:39;71.73;;;69.33;;
13605;SDS011;6874;52.084;5.090;2022-10-23T10:09:09;75.00;;;72.53;;
13605;SDS011;6874;52.084;5.090;2022-10-23T10:11:43;70.80;;;68.40;;
13605;SDS011;6874;52.084;5.090;2022-10-23T10:17:00;57.97;;;56.07;;
13605;SDS011;6874;52.084;5.090;2022-10-23T10:25:07;56.43;;;54.60;;
13605;SDS011;6874;52.084;5.090;2022-10-23T10:28:08;58.43;;;56.53;;
13605;SDS011;6874;52.084;5.090;2022-10-23T10:30:42;52.37;;;50.67;;
13605;SDS011;6874;52.084;5.090;2022-10-23T10:33:27;46.17;;;44.67;;
13605;SDS011;6874;52.084;5.090;2022-10-23T10:39:00;49.43;;;47.83;;
13605;SDS011;6874;52.084;5.090;2022-10-23T10:41:36;53.87;;;52.13;;
13605;SDS011;6874;52.084;5.090;2022-10-23T10:52:07;49.30;;;47.70;;
13605;SDS011;6874;52.084;5.090;2022-10-23T10:55:05;43.67;;;42.27;;
13605;SDS011;6874;52.084;5.090;2022-10-23T10:57:40;46.33;;;44.83;;
13605;SDS011;6874;52.084;5.090;2022-10-23T11:00:15;55.33;;;53.57;;
13605;SDS011;6874;52.084;5.090;2022-10-23T11:05:46;44.40;;;43.00;;
13605;SDS011;6874;52.084;5.090;2022-10-23T11:08:18;51.23;;;49.60;;
13605;SDS011;6874;52.084;5.090;2022-10-23T11:10:59;49.17;;;47.57;;
13605;SDS011;6874;52.084;5.090;2022-10-23T11:13:33;55.67;;;53.87;;
13605;SDS011;6874;52.084;5.090;2022-10-23T11:18:35;57.03;;;55.23;;
13605;SDS011;6874;52.084;5.090;2022-10-23T11:21:08;57.33;;;55.53;;
13605;SDS011;6874;52.084;5.090;2022-10-23T11:29:12;60.77;;;58.83;;
13605;SDS011;6874;52.084;5.090;2022-10-23T11:32:10;48.80;;;47.23;;
13605;SDS011;6874;52.084;5.090;2022-10-23T11:34:54;51.40;;;49.77;;
13605;SDS011;6874;52.084;5.090;2022-10-23T11:37:23;53.87;;;52.13;;
13605;SDS011;6874;52.084;5.090;2022-10-23T11:40:02;59.60;;;57.70;;
13605;SDS011;6874;52.084;5.090;2022-10-23T11:42:33;53.63;;;51.90;;
13605;SDS011;6874;52.084;5.090;2022-10-23T12:01:16;57.37;;;55.50;;
13605;SDS011;6874;52.084;5.090;2022-10-23T12:04:03;54.93;;;53.13;;
13605;SDS011;6874;52.084;5.090;2022-10-23T12:06:52;50.13;;;48.53;;
13605;SDS011;6874;52.084;5.090;2022-10-23T12:09:21;51.33;;;49.67;;
13605;SDS011;6874;52.084;5.090;2022-10-23T12:12:01;55.73;;;53.93;;
13605;SDS011;6874;52.084;5.090;2022-10-23T12:17:17;55.40;;;53.60;;
13605;SDS011;6874;52.084;5.090;2022-10-23T12:19:53;46.97;;;45.47;;
13605;SDS011;6874;52.084;5.090;2022-10-23T12:22:20;53.43;;;51.73;;
13605;SDS011;6874;52.084;5.090;2022-10-23T12:30:42;48.73;;;47.13;;
13605;SDS011;6874;52.084;5.090;2022-10-23T12:33:19;52.53;;;50.83;;
13605;SDS011;6874;52.084;5.090;2022-10-23T12:38:44;55.10;;;53.33;;
13605;SDS011;6874;52.084;5.090;2022-10-23T12:41:31;69.20;;;66.93;;
13605;SDS011;6874;52.084;5.090;2022-10-23T12:43:59;65.53;;;63.40;;
13605;SDS011;6874;52.084;5.090;2022-10-23T12:46:34;74.13;;;71.73;;
13605;SDS011;6874;52.084;5.090;2022-10-23T12:49:11;78.57;;;76.00;;
13605;SDS011;6874;52.084;5.090;2022-10-23T12:52:21;80.70;;;78.07;;
13605;SDS011;6874;52.084;5.090;2022-10-23T12:54:40;73.97;;;71.57;;
13605;SDS011;6874;52.084;5.090;2022-10-23T12:57:39;97.33;;;94.13;;
13605;SDS011;6874;52.084;5.090;2022-10-23T13:00:07;76.67;;;74.17;;
13605;SDS011;6874;52.084;5.090;2022-10-23T13:02:34;98.47;;;95.23;;
13605;SDS011;6874;52.084;5.090;2022-10-23T13:05:01;102.87;;;99.50;;
13605;SDS011;6874;52.084;5.090;2022-10-23T13:07:31;113.53;;;109.80;;
13605;SDS011;6874;52.084;5.090;2022-10-23T13:09:59;116.90;;;113.03;;
13605;SDS011;6874;52.084;5.090;2022-10-23T13:12:30;127.07;;;122.90;;
13605;SDS011;6874;52.084;5.090;2022-10-23T13:14:59;139.57;;;135.00;;
13605;SDS011;6874;52.084;5.090;2022-10-23T13:17:36;134.93;;;130.50;;
13605;SDS011;6874;52.084;5.090;2022-10-23T13:22:41;142.83;;;138.13;;
13605;SDS011;6874;52.084;5.090;2022-10-23T13:25:20;161.40;;;156.10;;
13605;SDS011;6874;52.084;5.090;2022-10-23T13:27:47;156.10;;;151.00;;
13605;SDS011;6874;52.084;5.090;2022-10-23T13:30:32;159.53;;;154.20;;
13605;SDS011;6874;52.084;5.090;2022-10-23T13:33:12;148.17;;;143.30;;
13605;SDS011;6874;52.084;5.090;2022-10-23T13:35:58;144.50;;;139.70;;
13605;SDS011;6874;52.084;5.090;2022-10-23T13:38:46;141.90;;;137.23;;
13605;SDS011;6874;52.084;5.090;2022-10-23T13:41:18;156.00;;;150.83;;
13605;SDS011;6874;52.084;5.090;2022-10-23T13:43:45;164.67;;;159.27;;
13605;SDS011;6874;52.084;5.090;2022-10-23T13:46:15;185.10;;;178.97;;
13605;SDS011;6874;52.084;5.090;2022-10-23T13:48:41;179.97;;;174.00;;
13605;SDS011;6874;52.084;5.090;2022-10-23T13:51:11;181.20;;;175.20;;
13605;SDS011;6874;52.084;5.090;2022-10-23T13:53:45;181.10;;;175.13;;
13605;SDS011;6874;52.084;5.090;2022-10-23T13:56:12;188.83;;;182.53;;
13605;SDS011;6874;52.084;5.090;2022-10-23T13:58:38;188.03;;;181.73;;
13605;SDS011;6874;52.084;5.090;2022-10-23T14:01:05;190.57;;;184.17;;
13605;SDS011;6874;52.084;5.090;2022-10-23T14:03:30;205.90;;;199.00;;
13605;SDS011;6874;52.084;5.090;2022-10-23T14:05:56;213.13;;;206.13;;
13605;SDS011;6874;52.084;5.090;2022-10-23T14:08:22;213.17;;;206.07;;
13605;SDS011;6874;52.084;5.090;2022-10-23T14:10:47;210.43;;;203.40;;
13605;SDS011;6874;52.084;5.090;2022-10-23T14:13:13;208.17;;;201.23;;
13605;SDS011;6874;52.084;5.090;2022-10-23T14:15:38;221.67;;;214.27;;
13605;SDS011;6874;52.084;5.090;2022-10-23T14:18:04;215.37;;;208.17;;
13605;SDS011;6874;52.084;5.090;2022-10-23T14:20:29;224.37;;;216.87;;
13605;SDS011;6874;52.084;5.090;2022-10-23T14:22:55;224.87;;;217.40;;
13605;SDS011;6874;52.084;5.090;2022-10-23T14:25:21;220.00;;;212.63;;
13605;SDS011;6874;52.084;5.090;2022-10-23T14:27:47;226.03;;;218.43;;
13605;SDS011;6874;52.084;5.090;2022-10-23T14:30:12;230.30;;;222.57;;
13605;SDS011;6874;52.084;5.090;2022-10-23T14:32:39;224.67;;;217.13;;
13605;SDS011;6874;52.084;5.090;2022-10-23T14:35:04;227.80;;;220.17;;
13605;SDS011;6874;52.084;5.090;2022-10-23T14:37:30;227.40;;;219.83;;
13605;SDS011;6874;52.084;5.090;2022-10-23T14:39:57;232.47;;;224.63;;
13605;SDS011;6874;52.084;5.090;2022-10-23T14:42:23;227.37;;;219.70;;
13605;SDS011;6874;52.084;5.090;2022-10-23T14:44:49;228.83;;;221.00;;
13605;SDS011;6874;52.084;5.090;2022-10-23T14:47:15;251.97;;;243.40;;
13605;SDS011;6874;52.084;5.090;2022-10-23T14:49:43;252.53;;;243.87;;
13605;SDS011;6874;52.084;5.090;2022-10-23T14:52:11;271.20;;;261.93;;
13605;SDS011;6874;52.084;5.090;2022-10-23T14:54:37;263.73;;;254.67;;
13605;SDS011;6874;52.084;5.090;2022-10-23T14:57:02;280.17;;;270.57;;
13605;SDS011;6874;52.084;5.090;2022-10-23T14:59:28;259.83;;;250.83;;
13605;SDS011;6874;52.084;5.090;2022-10-23T15:01:54;257.20;;;248.37;;
13605;SDS011;6874;52.084;5.090;2022-10-23T15:04:19;252.53;;;243.73;;
13605;SDS011;6874;52.084;5.090;2022-10-23T15:06:45;245.73;;;237.17;;
13605;SDS011;6874;52.084;5.090;2022-10-23T15:09:11;249.47;;;240.73;;
13605;SDS011;6874;52.084;5.090;2022-10-23T15:11:37;245.47;;;236.90;;
13605;SDS011;6874;52.084;5.090;2022-10-23T15:14:03;233.90;;;225.83;;
13605;SDS011;6874;52.084;5.090;2022-10-23T15:16:28;228.67;;;220.77;;
13605;SDS011;6874;52.084;5.090;2022-10-23T15:18:54;220.57;;;212.97;;
13605;SDS011;6874;52.084;5.090;2022-10-23T15:21:19;206.07;;;198.93;;
13605;SDS011;6874;52.084;5.090;2022-10-23T15:23:45;214.37;;;206.97;;
13605;SDS011;6874;52.084;5.090;2022-10-23T15:26:12;211.03;;;203.73;;
13605;SDS011;6874;52.084;5.090;2022-10-23T15:28:51;208.17;;;200.93;;
13605;SDS011;6874;52.084;5.090;2022-10-23T15:33:52;203.47;;;196.33;;
13605;SDS011;6874;52.084;5.090;2022-10-23T15:36:18;199.17;;;192.17;;
13605;SDS011;6874;52.084;5.090;2022-10-23T15:38:44;206.60;;;199.27;;
13605;SDS011;6874;52.084;5.090;2022-10-23T15:41:12;208.10;;;200.80;;
13605;SDS011;6874;52.084;5.090;2022-10-23T15:43:39;205.70;;;198.47;;
13605;SDS011;6874;52.084;5.090;2022-10-23T15:46:05;215.57;;;207.97;;
13605;SDS011;6874;52.084;5.090;2022-10-23T15:48:30;209.03;;;201.70;;
13605;SDS011;6874;52.084;5.090;2022-10-23T15:50:56;212.77;;;205.27;;
13605;SDS011;6874;52.084;5.090;2022-10-23T15:53:23;213.00;;;205.37;;
13605;SDS011;6874;52.084;5.090;2022-10-23T15:55:49;206.97;;;199.63;;
13605;SDS011;6874;52.084;5.090;2022-10-23T15:58:14;211.63;;;204.17;;
13605;SDS011;6874;52.084;5.090;2022-10-23T16:00:40;213.33;;;205.77;;
13605;SDS011;6874;52.084;5.090;2022-10-23T16:03:05;217.30;;;209.60;;
13605;SDS011;6874;52.084;5.090;2022-10-23T16:05:31;218.00;;;210.23;;
13605;SDS011;6874;52.084;5.090;2022-10-23T16:07:56;216.63;;;208.93;;
13605;SDS011;6874;52.084;5.090;2022-10-23T16:10:22;211.83;;;204.27;;
13605;SDS011;6874;52.084;5.090;2022-10-23T16:12:48;219.03;;;211.23;;
13605;SDS011;6874;52.084;5.090;2022-10-23T16:15:14;220.07;;;212.27;;
13605;SDS011;6874;52.084;5.090;2022-10-23T16:17:40;212.03;;;204.53;;
13605;SDS011;6874;52.084;5.090;2022-10-23T16:20:06;212.50;;;204.90;;
13605;SDS011;6874;52.084;5.090;2022-10-23T16:22:31;213.90;;;206.27;;
13605;SDS011;6874;52.084;5.090;2022-10-23T16:24:57;217.53;;;209.80;;
13605;SDS011;6874;52.084;5.090;2022-10-23T16:27:22;213.47;;;205.90;;
13605;SDS011;6874;52.084;5.090;2022-10-23T16:29:48;215.67;;;208.03;;
13605;SDS011;6874;52.084;5.090;2022-10-23T16:32:14;209.73;;;202.30;;